Nearby METAR Reports

 

KISP - Islip, New York, USA
Distance from station: SW 4mi, 6km
Updated: Sat, 07/2/2022 2:56 am EDT
Partly cloudy
Partly cloudy
 Wind from SW
Wind: SW 14 mph , 22 km/h, Gust: 21 mph , 33 km/h
Temperature: 73°F , 23°C
Dew Point: 72°F , 22°C
Humidity: 94%
Barometer: 29.91 inHg , 1012.9 hPa
Clouds: Partly cloudy
Visibility: 10 miles , 16 km
Cloud details: Partly cloudy 700 ft
Partly cloudy 11000 ft
2022/07/02 06:56 KISP 020656Z AUTO 22012G18KT 10SM SCT007 SCT110 23/22 A2991 RMK AO2 SLP127 T02280217
KHWV - Shirley, New York, USA
Distance from station: E 10mi, 16km
Updated: Sat, 07/2/2022 2:56 am EDT
Overcast
Overcast
 Wind from SSW
Wind: SSW 12 mph , 19 km/h, Gust: 24 mph , 39 km/h
Temperature: 73°F , 23°C
Dew Point: 70°F , 21°C
Humidity: 89%
Barometer: 29.92 inHg , 1013.2 hPa
Clouds: Overcast
Visibility: 10 miles , 16 km
Cloud details: Overcast 700 ft
2022/07/02 06:56 KHWV 020656Z AUTO 20010G21KT 10SM OVC007 23/21 A2992 RMK AO2 SLP130 T02330206
 
KFRG - Farmingdale, New York, USA
Distance from station: WSW 20mi, 33km
Updated: Sat, 07/2/2022 2:53 am EDT
Partly cloudy
Partly cloudy
 Wind from SSW
Wind: SSW 10 mph , 17 km/h
Temperature: 73°F , 23°C
Dew Point: 70°F , 21°C
Humidity: 89%
Barometer: 29.92 inHg , 1013.2 hPa
Clouds: Partly cloudy
Visibility: 10 miles , 16 km
Cloud details: Partly cloudy 11000 ft
2022/07/02 06:53 KFRG 020653Z AUTO 21009KT 10SM SCT110 23/21 A2992 RMK AO2 SLP130 T02280206
KBDR - Bridgeport, Connecticut, USA
Distance from station: N 23mi, 37km
Updated: Sat, 07/2/2022 2:52 am EDT
Partly cloudy
Partly cloudy
 Wind from SSW
Wind: SSW 15 mph , 24 km/h
Temperature: 73°F , 23°C
Dew Point: 70°F , 21°C
Humidity: 89%
Barometer: 29.88 inHg , 1011.9 hPa
Clouds: Partly cloudy
Visibility: 10 miles , 16 km
Cloud details: Few Clouds 7500 ft
Partly cloudy 10000 ft
2022/07/02 06:52 KBDR 020652Z AUTO 21013KT 10SM FEW075 SCT100 23/21 A2988 RMK AO2 LTG DSNT N AND NE SLP118 T02280206
 
KFOK - Westhampton Beac, New York, USA
Distance from station: E 23mi, 37km
Updated: Sat, 07/2/2022 2:53 am EDT
Overcast
Overcast
 Wind from SW
Wind: SW 10 mph , 17 km/h, Gust: 21 mph , 33 km/h
Temperature: 72°F , 22°C
Dew Point: 70°F , 21°C
Humidity: 94%
Barometer: 29.94 inHg , 1013.9 hPa
Clouds: Overcast
Visibility: 10 miles , 16 km
Cloud details: Overcast 600 ft
2022/07/02 06:53 KFOK 020653Z AUTO 22009G18KT 10SM OVC006 22/21 A2994 RMK AO2 SLP138 T02220211
KHVN - New Haven/Tweed, Connecticut, USA
Distance from station: NNE 31mi, 50km
Updated: Sat, 07/2/2022 2:53 am EDT
Mostly cloudy
Mostly cloudy
 Wind from SSW
Wind: SSW 6 mph , 9 km/h
Temperature: 75°F , 24°C
Dew Point: 72°F , 22°C
Humidity: 89%
Barometer: 29.89 inHg , 1012.2 hPa
Clouds: Mostly cloudy
Visibility: 9 miles , 14 km
Cloud details: Mostly cloudy 10000 ft
2022/07/02 06:53 KHVN 020653Z AUTO 21005KT 9SM BKN100 24/22 A2989 RMK AO2 LTG DSNT N AND NW SLP121 T02390217
 
KHPN - White Plains, New York, USA
Distance from station: WNW 37mi, 60km
Updated: Sat, 07/2/2022 2:56 am EDT
Mostly cloudy
Mostly cloudy
 Wind from varies
Wind: varies 6 mph , 9 km/h
Temperature: 81°F , 27°C
Heat Index: 84°F , 29°C
Dew Point: 68°F , 20°C
Humidity: 66%
Barometer: 29.89 inHg , 1012.2 hPa
Clouds: Mostly cloudy
Visibility: 10 miles , 16 km
Cloud details: Mostly cloudy 10000 ft
2022/07/02 06:56 KHPN 020656Z VRB05KT 10SM BKN100 27/20 A2989 RMK AO2 SLP113 T02670200
KJFK - Nyc/Jfk Arpt, New York, USA
Distance from station: WSW 40mi, 64km
Updated: Sat, 07/2/2022 2:51 am EDT
Mostly cloudy
Mostly cloudy
 Wind from SSW
Wind: SSW 9 mph , 15 km/h
Temperature: 73°F , 23°C
Dew Point: 68°F , 20°C
Humidity: 83%
Barometer: 29.91 inHg , 1012.9 hPa
Clouds: Mostly cloudy
Visibility: 10 miles , 16 km
Cloud details: Few Clouds 11000 ft
Partly cloudy 18000 ft
Mostly cloudy 26000 ft
2022/07/02 06:51 KJFK 020651Z 20008KT 10SM FEW110 SCT180 BKN260 23/20 A2991 RMK AO2 SLP128 T02280200
 
KDXR - Danbury, Connecticut, USA
Distance from station: NNW 42mi, 68km
Updated: Sat, 07/2/2022 2:53 am EDT
Mostly cloudy
Mostly cloudy
 Wind from N
Wind: N 7 mph , 11 km/h
Temperature: 75°F , 24°C
Dew Point: 64°F , 18°C
Humidity: 69%
Barometer: 29.92 inHg , 1013.2 hPa
Clouds: Mostly cloudy
Visibility: 10 miles , 16 km
Cloud details: Mostly cloudy 3200 ft
2022/07/02 06:53 KDXR 020653Z AUTO 36006KT 10SM BKN032 24/18 A2992 RMK AO2 LTG DSNT NE AND NW SLP125 T02390178
KHTO - East Hampton, New York, USA
Distance from station: E 43mi, 69km
Updated: Sat, 05/21/2022 1:35 pm EDT
NOT Current
Clear
Clear
 Wind from WNW
Wind: WNW 5 mph , 7 km/h
Temperature: 81°F , 27°C
Heat Index: 83°F , 28°C
Dew Point: 66°F , 19°C
Humidity: 62%
Barometer: 30.00 inHg , 1015.9 hPa
Clouds: Clear
Visibility: 10 miles , 16 km
2022/05/21 17:35 KHTO 211735Z AUTO 30004KT 10SM CLR 27/19 A3000 RMK AO2 T02670193
 
KOXC - Oxford/Waterbury, Connecticut, USA
Distance from station: N 43mi, 70km
Updated: Sat, 07/2/2022 3:14 am EDT
Overcast
Overcast
 Wind from calm
Wind: Calm
Temperature: 70°F , 21°C
Dew Point: 66°F , 19°C
Humidity: 88%
Barometer: 29.92 inHg , 1013.2 hPa
Clouds: Overcast
Visibility: 10 miles , 16 km
Cloud details: Few Clouds 900 ft
Overcast 3000 ft
2022/07/02 07:14 KOXC 020714Z AUTO 00000KT 10SM FEW009 OVC030 21/19 A2992 RMK AO2 LTG DSNT NW-E TSE10RAE04 P0000
KLGA - Nyc/La Guardia, New York, USA
Distance from station: W 44mi, 70km
Updated: Sat, 07/2/2022 2:51 am EDT
Overcast
Overcast
 Wind from SSW
Wind: SSW 14 mph , 22 km/h
Temperature: 81°F , 27°C
Heat Index: 84°F , 29°C
Dew Point: 68°F , 20°C
Humidity: 66%
Barometer: 29.88 inHg , 1011.9 hPa
Clouds: Overcast
Visibility: 10 miles , 16 km
Cloud details: Partly cloudy 12000 ft
Partly cloudy 20000 ft
Overcast 25000 ft
2022/07/02 06:51 KLGA 020651Z 21012KT 10SM SCT120 SCT200 OVC250 27/20 A2988 RMK AO2 SLP117 T02670200 $
 
KSNC - Chester, Connecticut, USA
Distance from station: NE 47mi, 76km
Updated: Sat, 07/2/2022 3:15 am EDT
Mostly cloudy
Mostly cloudy
 Wind from SSW
Wind: SSW 8 mph , 13 km/h, Gust: 15 mph , 24 km/h
Temperature: 72°F , 22°C
Dew Point: 72°F , 22°C
Humidity: 100%
Barometer: 29.90 inHg , 1012.5 hPa
Clouds: Mostly cloudy
Visibility: 9 miles , 14 km
Cloud details: Partly cloudy 800 ft
Partly cloudy 4700 ft
Mostly cloudy 7500 ft
2022/07/02 07:15 KSNC 020715Z AUTO 20007G13KT 9SM SCT008 SCT047 BKN075 22/22 A2990 RMK AO2
KMMK - Meriden, Connecticut, USA
Distance from station: NNE 48mi, 77km
Updated: Sat, 07/2/2022 3:14 am EDT
Nearby thunderstorm, Light rain, Overcast
Nearby thunderstorm, Light rain, Overcast
 Wind from NNW
Wind: NNW 8 mph , 13 km/h
Temperature: 73°F , 23°C
Dew Point: 66°F , 19°C
Humidity: 78%
Barometer: 29.90 inHg , 1012.5 hPa
Summary: Nearby thunderstorm, Light rain
Clouds: Overcast
Visibility: 9 miles , 14 km
Cloud details: Partly cloudy 2000 ft
Mostly cloudy 3800 ft
Overcast 7000 ft
2022/07/02 07:14 KMMK 020714Z AUTO 33007KT 9SM VCTS -RA SCT020 BKN038 OVC070 23/19 A2990 RMK AO2 LTG DSNT NE AND NW RAE0657B07 TSE04 P0002 T02280194
 
KNYC - Nyc/Central Park, New York, USA
Distance from station: W 48mi, 77km
Updated: Sat, 07/2/2022 2:51 am EDT
Few Clouds
Few Clouds
 Wind from varies
Wind: varies 5 mph , 7 km/h
Temperature: 79°F , 26°C
Dew Point: 68°F , 20°C
Humidity: 70%
Barometer: 29.92 inHg , 1013.2 hPa
Clouds: Few Clouds
Visibility: 10 miles , 16 km
Cloud details: Few Clouds 12000 ft
2022/07/02 06:51 KNYC 020651Z AUTO VRB04KT 10SM FEW120 26/20 A2992 RMK AO2 RAB0556E05 SLP120 P0000 T02560200 $